Terminal Aerodrome Forecast
Issued by NWS Corpus Christi, TX

Home | Current Version | Previous Version | Text Only | Print | Product List | Glossary On
Versions: 1 2 3 4 5 6 7 8 9 10 11 12 13 14
000
FTUS44 KCRP 181125
TAFVCT
TAF
KVCT 181125Z 1812/1912 17005KT P6SM SCT020
      TEMPO 1812/1814 BKN020
     FM181500 19007KT P6SM SCT030
     FM181900 16012G18KT P6SM FEW150
     FM190100 15007KT P6SM SKC
     FM190900 VRB03KT P6SM SCT020=

USA.gov is the U.S. government's official web portal to all federal, state and local government web resources and services.